Terminal Aerodrome Forecast
Issued by NWS

Home | Current Version | Previous Version | Text Only | Print | Product List | Glossary On
Versions: 1 2 3 4 5 6 7 8 9 10 11 12 13
000
FTUS45 KREV 052007 AAA
TAFMMH
TAF AMD
KMMH 052007Z 0520/0618 20012G20KT P6SM VCTS SCT050 BKN080CB
     FM052300 27011KT P6SM SCT080
     FM060500 VRB03KT P6SM FEW080=

USA.gov is the U.S. government's official web portal to all federal, state and local government web resources and services.